Milwaukee, WI (53207)

9:59 PM CST on February 19, 2017 (GMT -0600)
Town of Lake | | Change Station

Elev 702 ft 42.98 °N, 87.94 °W | Updated 4 seconds ago

Scattered Clouds
Scattered Clouds
38.5 °F
Feels Like 38 °F
N
0.0
Wind Variable Wind from ENE

Today
High -- | Low -- °F
--% Chance of Precip.
Yesterday
High -- | Low -- °F
Precip. -- in
Pressure 30.13 in
Visibility 10.0 miles
Clouds Scattered Clouds 25000 ft
Windchill 38 °F
Dew Point 33 °F
Humidity 80%
Rainfall 0.59 in
Snow Depth Not available.
6:42 AM 5:28 PM
Last Quarter, 37% visible
METAR KMKE 200352Z 05003KT 10SM SCT250 04/00 A3012 RMK AO2 SLP202 T00390000
Pressure 30.13 in
Visibility 10.0 miles
Clouds Scattered Clouds 25000 ft
Windchill 38 °F
Dew Point 33 °F
Humidity 80%
Rainfall 0.59 in
Snow Depth Not available.
6:42 AM 5:28 PM
Last Quarter, 37% visible
METAR KMKE 200352Z 05003KT 10SM SCT250 04/00 A3012 RMK AO2 SLP202 T00390000

Get Your Daily Forecast Email!

Thanks for signing up!

Be on the lookout for a verification email in your inbox.

You'll start receiving the daily forecast at 8 AM.

×

10-Day Weather Forecast

Almanac

Astronomy

Feb. 19, 2017 Rise Set
Actual Time
Civil Twilight
Nautical Twilight
Astronomical Twilight
Moon
Length of Visible Light
Length of Day
Tomorrow will be .
, % of the Moon is Illuminated

Today's Extremes

State Highs State Lows

Community

WunderPhotos

Upload Photos

1,962,540 photos uploaded!

WunderBlog® & News

Nearby

Air Quality

  Air Quality AQ Index Pollutant
Not available.

Snow Depth

Station Depth Elevation

Earthquake Activity

City Distance Mag. Time & Date
Minimum magnitude displayed is 2.5.

Coastal Water Temperatures

Place Temperature

Stations

Nearby Weather Stations

Station Location Temp. Windchill Dew Point Humidity Wind Precip. Elev Updated Type
                   

Watches & Warnings

There are currently no watches in effect.